Delmar, Alabama
Current Conditions -  °F | °C
As of 11:44 PM on Sunday 21 Dec 2014 (Local Time) from K1M4 Reporting Station
Overcast Overcast  
Wind Chill: 45°   Ceiling: 500
Heat Index: 48°   Visibility: 8mi
Dew Point: 46°   Wind: 7mph
Humidity: 93%   Direction: 140°SE
Pressure: 30.01"   Gusts: NA
Location:  34.17°N, 87.61°W
Report Text: K1M4 220544Z AUTO 14006KT 8SM OVC005 09/08 A3001 RMK AO2 $
Loading
Personal Weather Stations






























Interactive Weather Map New forecast layout! Learn more

10-Day Weather Forecast

Advertisements
Track Severe Weather on mobile